Dyersburg, TN

4:51 AM CDT on April 24, 2018 (GMT -0500)
Dyersburg Municipal

Weather History for KDYR - February, 2012

Change the Weather History Date:

Sunday, February 26, 2012

  Actual Average Record
Temperature  
Mean Temperature 48 °F -  
Max Temperature 64 °F 50 °F 69 °F (1999)
Min Temperature 32 °F 36 °F 21 °F (2014)
Degree Days  
Heating Degree Days 17    
Moisture  
Dew Point 23 °F    
Average Humidity 37    
Maximum Humidity 55    
Minimum Humidity 24    
Precipitation  
Precipitation 0.00 in - - ()
Sea Level Pressure  
Sea Level Pressure 30.25 in    
Wind  
Wind Speed 7 mph (SSE)    
Max Wind Speed 13 mph    
Max Gust Speed 20 mph    
Visibility 10 miles    
Events      
Averages and records for this station are not official NWS values.
T = Trace of Precipitation, MM = Missing Value Source: NWS Daily Summary

Daily Weather History Graph

Daily Weather History Graph

Search for Another Location

Airport or City:

Astronomy

Feb. 26, 2012 Rise Set
Actual Time 6:32 AM CST 5:49 PM CST
Civil Twilight 6:06 AM CST 6:15 PM CST
Nautical Twilight 5:36 AM CST 6:44 PM CST
Astronomical Twilight 5:07 AM CST 7:14 PM CST
Moon 8:38 AM CST (2/26) 10:35 PM CST (2/26)
Length of Visible Light 12h 08m
Length of Day
11h 17m
Waxing Crescent, 21% of the Moon is Illuminated
Feb 26
Waxing Crescent
Feb 29
First Quarter
Mar 8
Full
Mar 14
Last Quarter
Mar 22
New

Hourly Weather History & Observations

Time (CST) Temp. Windchill Dew Point Humidity Pressure Visibility Wind Dir Wind Speed Gust Speed Precip Events Conditions
12:15 AM 35.6 °F 31.7 °F 17.6 °F 48% 30.30 in 10.0 mi East 4.6 mph - N/A   Clear
12:35 AM 35.6 °F 31.7 °F 17.6 °F 48% 30.30 in 10.0 mi East 4.6 mph - N/A   Clear
12:55 AM 35.6 °F 30.7 °F 17.6 °F 48% 30.31 in 10.0 mi SE 5.8 mph - N/A   Clear
1:15 AM 35.6 °F 30.7 °F 17.6 °F 48% 30.31 in 10.0 mi ESE 5.8 mph - N/A   Clear
1:35 AM 35.6 °F 29.9 °F 17.6 °F 48% 30.30 in 10.0 mi ESE 6.9 mph - N/A   Clear
1:55 AM 35.6 °F 29.2 °F 17.6 °F 48% 30.29 in 10.0 mi East 8.1 mph - N/A   Clear
2:15 AM 35.6 °F 29.2 °F 17.6 °F 48% 30.29 in 10.0 mi East 8.1 mph - N/A   Clear
2:35 AM 35.6 °F 29.2 °F 17.6 °F 48% 30.31 in 10.0 mi SE 8.1 mph - N/A   Clear
2:55 AM 33.8 °F 29.6 °F 17.6 °F 52% 30.31 in 10.0 mi SE 4.6 mph - N/A   Clear
3:35 AM 33.8 °F 27.7 °F 17.6 °F 52% 30.30 in 10.0 mi ESE 6.9 mph - N/A   Clear
3:55 AM 33.8 °F 29.6 °F 17.6 °F 52% 30.31 in 10.0 mi SE 4.6 mph - N/A   Clear
4:15 AM 33.8 °F 30.8 °F 17.6 °F 52% 30.32 in 10.0 mi SSE 3.5 mph - N/A   Clear
4:35 AM 33.8 °F 29.6 °F 17.6 °F 52% 30.32 in 10.0 mi SE 4.6 mph - N/A   Clear
4:55 AM 32.0 °F 26.4 °F 17.6 °F 55% 30.33 in 10.0 mi SE 5.8 mph - N/A   Clear
5:15 AM 33.8 °F 27.7 °F 17.6 °F 52% 30.33 in 10.0 mi ESE 6.9 mph - N/A   Clear
6:35 AM 33.8 °F 27.7 °F 17.6 °F 52% 30.32 in 10.0 mi SE 6.9 mph - N/A   Clear
6:55 AM 33.8 °F 27.0 °F 17.6 °F 52% 30.32 in 10.0 mi SE 8.1 mph - N/A   Clear
7:15 AM 35.6 °F 29.9 °F 17.6 °F 48% 30.32 in 10.0 mi SE 6.9 mph - N/A   Clear
7:55 AM 39.2 °F 33.0 °F 19.4 °F 45% 30.33 in 10.0 mi SSE 9.2 mph - N/A   Clear
8:15 AM 39.2 °F 33.0 °F 19.4 °F 45% 30.33 in 10.0 mi SSE 9.2 mph - N/A   Clear
8:55 AM 44.6 °F 38.8 °F 21.2 °F 39% 30.32 in 10.0 mi South 11.5 mph 17.3 mph N/A   Clear
9:15 AM 46.4 °F 41.1 °F 21.2 °F 37% 30.32 in 10.0 mi South 11.5 mph 17.3 mph N/A   Clear
9:35 AM 48.2 °F - 21.2 °F 34% 30.32 in 10.0 mi South 12.7 mph 18.4 mph N/A   Clear
9:55 AM 51.8 °F - 23.0 °F 33% 30.32 in 10.0 mi South 10.4 mph 18.4 mph N/A   Clear
10:15 AM 53.6 °F - 24.8 °F 33% 30.31 in 10.0 mi South 12.7 mph 19.6 mph N/A   Clear
10:35 AM 53.6 °F - 24.8 °F 33% 30.31 in 10.0 mi South 10.4 mph - N/A   Clear
10:55 AM 57.2 °F - 24.8 °F 29% 30.31 in 10.0 mi South 10.4 mph 16.1 mph N/A   Clear
11:15 AM 57.2 °F - 24.8 °F 29% 30.30 in 10.0 mi South 8.1 mph - N/A   Clear
11:35 AM 60.8 °F - 26.6 °F 27% 30.29 in 10.0 mi SSW 10.4 mph - N/A   Clear
11:55 AM 60.8 °F - 24.8 °F 25% 30.28 in 10.0 mi South 8.1 mph - N/A   Clear
12:15 PM 60.8 °F - 24.8 °F 25% 30.27 in 10.0 mi South 12.7 mph 17.3 mph N/A   Clear
12:35 PM 60.8 °F - 26.6 °F 27% 30.25 in 10.0 mi South 4.6 mph - N/A   Clear
12:55 PM 60.8 °F - 26.6 °F 27% 30.25 in 10.0 mi South 11.5 mph 17.3 mph N/A   Clear
1:15 PM 62.6 °F - 24.8 °F 24% 30.23 in 10.0 mi South 12.7 mph 17.3 mph N/A   Clear
1:35 PM 62.6 °F - 24.8 °F 24% 30.22 in 10.0 mi SSW 10.4 mph 16.1 mph N/A   Clear
1:55 PM 62.6 °F - 24.8 °F 24% 30.21 in 10.0 mi South 6.9 mph - N/A   Clear
2:15 PM 62.6 °F - 26.6 °F 26% 30.20 in 10.0 mi South 9.2 mph 18.4 mph N/A   Clear
2:35 PM 62.6 °F - 26.6 °F 26% 30.19 in 10.0 mi South 10.4 mph 19.6 mph N/A   Clear
2:55 PM 64.4 °F - 26.6 °F 24% 30.18 in 10.0 mi SSE 10.4 mph 17.3 mph N/A   Clear
3:15 PM 62.6 °F - 26.6 °F 26% 30.17 in 10.0 mi South 11.5 mph - N/A   Clear
3:35 PM 64.4 °F - 26.6 °F 24% 30.16 in 10.0 mi SSW 10.4 mph 18.4 mph N/A   Clear
3:55 PM 64.4 °F - 26.6 °F 24% 30.16 in 10.0 mi SSE 10.4 mph - N/A   Clear
4:15 PM 64.4 °F - 26.6 °F 24% 30.16 in 10.0 mi South 8.1 mph 16.1 mph N/A   Clear
4:35 PM 62.6 °F - 26.6 °F 26% 30.16 in 10.0 mi SSW 9.2 mph 19.6 mph N/A   Clear
4:55 PM 62.6 °F - 26.6 °F 26% 30.16 in 10.0 mi SSW 9.2 mph - N/A   Clear
5:15 PM 62.6 °F - 26.6 °F 26% 30.16 in 10.0 mi SSW 5.8 mph - N/A   Clear
5:35 PM 60.8 °F - 24.8 °F 25% 30.16 in 10.0 mi SSW 6.9 mph - N/A   Clear
5:55 PM 59.0 °F - 24.8 °F 27% 30.16 in 10.0 mi South 4.6 mph - N/A   Clear
6:15 PM 57.2 °F - 24.8 °F 29% 30.17 in 10.0 mi Calm Calm - N/A   Clear
6:35 PM 55.4 °F - 24.8 °F 31% 30.17 in 10.0 mi SSE 4.6 mph - N/A   Clear
6:55 PM 55.4 °F - 26.6 °F 33% 30.18 in 10.0 mi South 3.5 mph - N/A   Clear
7:15 PM 51.8 °F - 26.6 °F 38% 30.19 in 10.0 mi Calm Calm - N/A   Clear
7:35 PM 53.6 °F - 26.6 °F 35% 30.20 in 10.0 mi SSW 3.5 mph - N/A   Clear
7:55 PM 51.8 °F - 26.6 °F 38% 30.21 in 10.0 mi South 4.6 mph - N/A   Clear
8:15 PM 53.6 °F - 26.6 °F 35% 30.21 in 10.0 mi SSE 4.6 mph - N/A   Clear
8:35 PM 51.8 °F - 26.6 °F 38% 30.21 in 10.0 mi SSE 3.5 mph - N/A   Clear
8:55 PM 53.6 °F - 26.6 °F 35% 30.22 in 10.0 mi South 5.8 mph - N/A   Clear
9:15 PM 53.6 °F - 26.6 °F 35% 30.23 in 10.0 mi South 5.8 mph - N/A   Clear
9:35 PM 53.6 °F - 26.6 °F 35% 30.23 in 10.0 mi South 5.8 mph - N/A   Clear
9:55 PM 51.8 °F - 26.6 °F 38% 30.22 in 10.0 mi SSE 5.8 mph - N/A   Clear
10:15 PM 51.8 °F - 26.6 °F 38% 30.23 in 10.0 mi South 5.8 mph - N/A   Clear
10:35 PM 51.8 °F - 26.6 °F 38% 30.24 in 10.0 mi SSE 4.6 mph - N/A   Clear
10:55 PM 51.8 °F - 26.6 °F 38% 30.24 in 10.0 mi South 5.8 mph - N/A   Clear
11:15 PM 51.8 °F - 26.6 °F 38% 30.24 in 10.0 mi South 6.9 mph - N/A   Clear
11:35 PM 51.8 °F - 26.6 °F 38% 30.24 in 10.0 mi South 5.8 mph - N/A   Clear
11:55 PM 50.0 °F - 28.4 °F 43% 30.24 in 10.0 mi South 4.6 mph - N/A   Clear